sensor_id;sensor_type;location;lat;lon;timestamp;pressure;altitude;pressure_sealevel;temperature;humidity
78845;BME280;68195;50.854;2.860;2023-02-28T00:01:21;102965.34;;;0.76;71.38
78845;BME280;68195;50.854;2.860;2023-02-28T00:03:47;102975.56;;;0.75;71.34
78845;BME280;68195;50.854;2.860;2023-02-28T00:06:18;102984.91;;;0.71;72.08
78845;BME280;68195;50.854;2.860;2023-02-28T00:08:48;102966.66;;;0.62;72.04
78845;BME280;68195;50.854;2.860;2023-02-28T00:11:15;102979.75;;;0.70;72.10
78845;BME280;68195;50.854;2.860;2023-02-28T00:13:42;102977.97;;;0.67;71.94
78845;BME280;68195;50.854;2.860;2023-02-28T00:16:13;102983.34;;;0.76;71.58
78845;BME280;68195;50.854;2.860;2023-02-28T00:18:40;102974.63;;;0.71;72.19
78845;BME280;68195;50.854;2.860;2023-02-28T00:21:10;102985.00;;;0.74;72.14
78845;BME280;68195;50.854;2.860;2023-02-28T00:23:40;102968.66;;;0.72;71.61
78845;BME280;68195;50.854;2.860;2023-02-28T00:26:08;102970.25;;;0.69;71.79
78845;BME280;68195;50.854;2.860;2023-02-28T00:28:34;102983.34;;;0.76;71.57
78845;BME280;68195;50.854;2.860;2023-02-28T00:31:04;102975.91;;;0.87;71.15
78845;BME280;68195;50.854;2.860;2023-02-28T00:33:30;102937.50;;;0.61;70.76
78845;BME280;68195;50.854;2.860;2023-02-28T00:36:08;102974.25;;;0.89;71.15
78845;BME280;68195;50.854;2.860;2023-02-28T00:38:36;102978.75;;;0.98;70.34
78845;BME280;68195;50.854;2.860;2023-02-28T00:41:04;102956.59;;;0.71;70.93
78845;BME280;68195;50.854;2.860;2023-02-28T00:43:33;102961.75;;;0.70;71.25
78845;BME280;68195;50.854;2.860;2023-02-28T00:46:02;102958.13;;;0.63;71.11
78845;BME280;68195;50.854;2.860;2023-02-28T00:48:30;102990.25;;;0.79;71.10
78845;BME280;68195;50.854;2.860;2023-02-28T00:50:55;102972.25;;;0.79;70.78
78845;BME280;68195;50.854;2.860;2023-02-28T00:53:23;102969.53;;;0.73;70.54
78845;BME280;68195;50.854;2.860;2023-02-28T00:55:49;102963.56;;;0.74;70.51
78845;BME280;68195;50.854;2.860;2023-02-28T00:58:22;102984.16;;;0.75;71.20
78845;BME280;68195;50.854;2.860;2023-02-28T01:00:47;102951.06;;;0.56;71.29
78845;BME280;68195;50.854;2.860;2023-02-28T01:03:17;102976.94;;;0.62;71.42
78845;BME280;68195;50.854;2.860;2023-02-28T01:05:45;102959.31;;;0.44;71.85
78845;BME280;68195;50.854;2.860;2023-02-28T01:08:11;102947.72;;;0.58;71.12
78845;BME280;68195;50.854;2.860;2023-02-28T01:10:37;102977.03;;;0.65;71.22
78845;BME280;68195;50.854;2.860;2023-02-28T01:13:03;102982.47;;;0.76;70.75
78845;BME280;68195;50.854;2.860;2023-02-28T01:15:29;102976.38;;;0.72;70.81
78845;BME280;68195;50.854;2.860;2023-02-28T01:17:54;102944.13;;;0.53;71.01
78845;BME280;68195;50.854;2.860;2023-02-28T01:20:20;102983.63;;;0.55;71.84
78845;BME280;68195;50.854;2.860;2023-02-28T01:22:47;102998.13;;;0.53;72.26
78845;BME280;68195;50.854;2.860;2023-02-28T01:25:15;102996.88;;;0.39;72.81
78845;BME280;68195;50.854;2.860;2023-02-28T01:27:43;102987.47;;;0.39;72.65
78845;BME280;68195;50.854;2.860;2023-02-28T01:30:10;102994.34;;;0.40;72.77
78845;BME280;68195;50.854;2.860;2023-02-28T01:32:38;102977.88;;;0.34;72.04
78845;BME280;68195;50.854;2.860;2023-02-28T01:35:06;102993.84;;;0.52;71.54
78845;BME280;68195;50.854;2.860;2023-02-28T01:37:39;102987.47;;;0.39;72.26
78845;BME280;68195;50.854;2.860;2023-02-28T01:40:05;102984.91;;;0.41;72.17
78845;BME280;68195;50.854;2.860;2023-02-28T01:42:31;102981.03;;;0.55;71.26
78845;BME280;68195;50.854;2.860;2023-02-28T01:44:59;102991.81;;;0.42;72.45
78845;BME280;68195;50.854;2.860;2023-02-28T01:47:28;102988.16;;;0.34;72.20
78845;BME280;68195;50.854;2.860;2023-02-28T01:49:57;102978.72;;;0.33;71.99
78845;BME280;68195;50.854;2.860;2023-02-28T01:52:28;102963.16;;;0.28;71.48
78845;BME280;68195;50.854;2.860;2023-02-28T01:54:55;102991.03;;;0.45;71.58
78845;BME280;68195;50.854;2.860;2023-02-28T01:57:29;102971.13;;;0.37;71.64
78845;BME280;68195;50.854;2.860;2023-02-28T02:00:06;102976.53;;;0.47;71.22
78845;BME280;68195;50.854;2.860;2023-02-28T02:02:36;102974.06;;;0.51;71.16
78845;BME280;68195;50.854;2.860;2023-02-28T02:05:08;102969.69;;;0.47;70.87
78845;BME280;68195;50.854;2.860;2023-02-28T02:07:44;102969.47;;;0.39;71.14
78845;BME280;68195;50.854;2.860;2023-02-28T02:10:19;102977.44;;;0.49;70.63
78845;BME280;68195;50.854;2.860;2023-02-28T02:18:52;102966.78;;;0.35;71.12
78845;BME280;68195;50.854;2.860;2023-02-28T02:36:06;102935.22;;;0.10;70.91
78845;BME280;68195;50.854;2.860;2023-02-28T02:43:51;102975.09;;;0.26;71.65
78845;BME280;68195;50.854;2.860;2023-02-28T02:46:27;102942.00;;;0.07;71.48
78845;BME280;68195;50.854;2.860;2023-02-28T02:48:55;102969.91;;;0.25;72.06
78845;BME280;68195;50.854;2.860;2023-02-28T02:51:25;102949.72;;;0.08;72.44
78845;BME280;68195;50.854;2.860;2023-02-28T02:54:08;102921.50;;;-0.21;73.03
78845;BME280;68195;50.854;2.860;2023-02-28T02:56:38;102920.63;;;-0.21;73.05
78845;BME280;68195;50.854;2.860;2023-02-28T02:59:07;102944.34;;;-0.01;72.80
78845;BME280;68195;50.854;2.860;2023-02-28T03:01:37;102965.28;;;0.13;72.24
78845;BME280;68195;50.854;2.860;2023-02-28T03:04:08;102959.28;;;0.12;72.04
78845;BME280;68195;50.854;2.860;2023-02-28T03:06:39;102946.16;;;0.03;72.63
78845;BME280;68195;50.854;2.860;2023-02-28T03:09:04;102944.50;;;0.05;71.99
78845;BME280;68195;50.854;2.860;2023-02-28T03:11:35;102965.44;;;0.17;72.07
78845;BME280;68195;50.854;2.860;2023-02-28T03:25:27;102965.75;;;-0.29;76.20
78845;BME280;68195;50.854;2.860;2023-02-28T03:28:00;102963.19;;;-0.29;76.72
78845;BME280;68195;50.854;2.860;2023-02-28T03:30:47;102952.81;;;-0.32;77.32
78845;BME280;68195;50.854;2.860;2023-02-28T03:33:44;102949.94;;;-0.42;77.91
78845;BME280;68195;50.854;2.860;2023-02-28T03:36:22;102946.78;;;-0.34;78.28
78845;BME280;68195;50.854;2.860;2023-02-28T03:39:00;102964.03;;;-0.29;77.70
78845;BME280;68195;50.854;2.860;2023-02-28T03:41:46;102956.94;;;-0.37;78.12
78845;BME280;68195;50.854;2.860;2023-02-28T03:44:18;102931.91;;;-0.45;77.59
78845;BME280;68195;50.854;2.860;2023-02-28T03:46:52;102954.09;;;-0.18;75.79
78845;BME280;68195;50.854;2.860;2023-02-28T03:49:34;102941.06;;;-0.24;75.60
78845;BME280;68195;50.854;2.860;2023-02-28T03:52:03;102956.84;;;-0.12;77.66
78845;BME280;68195;50.854;2.860;2023-02-28T03:54:35;102930.91;;;-0.21;76.52
78845;BME280;68195;50.854;2.860;2023-02-28T03:57:09;102963.88;;;-0.06;76.86
78845;BME280;68195;50.854;2.860;2023-02-28T03:59:44;102951.84;;;-0.07;76.40
78845;BME280;68195;50.854;2.860;2023-02-28T04:02:12;102936.25;;;-0.13;76.73
78845;BME280;68195;50.854;2.860;2023-02-28T04:04:39;102961.50;;;0.00;76.25
78845;BME280;68195;50.854;2.860;2023-02-28T04:07:14;102959.56;;;-0.07;77.17
78845;BME280;68195;50.854;2.860;2023-02-28T04:09:42;102958.31;;;-0.20;77.87
78845;BME280;68195;50.854;2.860;2023-02-28T04:12:10;102958.63;;;-0.38;78.83
78845;BME280;68195;50.854;2.860;2023-02-28T04:14:38;102963.97;;;-0.32;77.98
78845;BME280;68195;50.854;2.860;2023-02-28T04:17:05;102956.06;;;-0.38;79.68
78845;BME280;68195;50.854;2.860;2023-02-28T04:19:33;102964.69;;;-0.36;79.35
78845;BME280;68195;50.854;2.860;2023-02-28T04:22:01;102934.66;;;-0.38;79.33
78845;BME280;68195;50.854;2.860;2023-02-28T04:24:27;102958.31;;;-0.20;79.48
78845;BME280;68195;50.854;2.860;2023-02-28T04:26:57;102967.13;;;-0.12;79.30
78845;BME280;68195;50.854;2.860;2023-02-28T04:29:30;102965.56;;;-0.07;78.75
78845;BME280;68195;50.854;2.860;2023-02-28T04:31:56;102973.97;;;-0.12;79.89
78845;BME280;68195;50.854;2.860;2023-02-28T04:34:28;102972.22;;;-0.13;80.29
78845;BME280;68195;50.854;2.860;2023-02-28T04:36:54;102962.53;;;-0.22;80.42
78845;BME280;68195;50.854;2.860;2023-02-28T04:39:20;102981.88;;;-0.06;80.28
78845;BME280;68195;50.854;2.860;2023-02-28T04:41:48;102987.88;;;-0.06;80.58
78845;BME280;68195;50.854;2.860;2023-02-28T04:44:14;102962.84;;;-0.11;80.36
78845;BME280;68195;50.854;2.860;2023-02-28T04:46:45;102954.81;;;-0.22;80.12
78845;BME280;68195;50.854;2.860;2023-02-28T04:49:12;102983.66;;;-0.04;80.56
78845;BME280;68195;50.854;2.860;2023-02-28T04:51:41;102974.28;;;-0.02;80.87
78845;BME280;68195;50.854;2.860;2023-02-28T04:54:07;102982.94;;;0.02;80.70
78845;BME280;68195;50.854;2.860;2023-02-28T04:56:37;102965.00;;;0.04;80.69
78845;BME280;68195;50.854;2.860;2023-02-28T04:59:05;103000.50;;;0.15;80.75
78845;BME280;68195;50.854;2.860;2023-02-28T05:01:34;102985.81;;;0.13;80.65
78845;BME280;68195;50.854;2.860;2023-02-28T05:04:02;102994.63;;;0.19;80.18
78845;BME280;68195;50.854;2.860;2023-02-28T05:06:32;103002.53;;;0.27;80.29
78845;BME280;68195;50.854;2.860;2023-02-28T05:08:59;103006.09;;;0.32;80.31
78845;BME280;68195;50.854;2.860;2023-02-28T05:11:32;102995.81;;;0.32;79.99
78845;BME280;68195;50.854;2.860;2023-02-28T05:14:03;102996.09;;;0.42;80.01
78845;BME280;68195;50.854;2.860;2023-02-28T05:16:32;102994.44;;;0.44;80.03
78845;BME280;68195;50.854;2.860;2023-02-28T05:18:58;102991.63;;;0.36;80.34
78845;BME280;68195;50.854;2.860;2023-02-28T05:21:35;102977.69;;;0.26;79.76
78845;BME280;68195;50.854;2.860;2023-02-28T05:24:11;102994.47;;;0.45;79.79
78845;BME280;68195;50.854;2.860;2023-02-28T05:26:40;103000.63;;;0.50;79.72
78845;BME280;68195;50.854;2.860;2023-02-28T05:29:09;103000.63;;;0.50;80.15
78845;BME280;68195;50.854;2.860;2023-02-28T05:31:36;102962.28;;;0.28;80.01
78845;BME280;68195;50.854;2.860;2023-02-28T05:34:03;102988.72;;;0.54;80.25
78845;BME280;68195;50.854;2.860;2023-02-28T05:36:34;102993.13;;;0.58;79.86
78845;BME280;68195;50.854;2.860;2023-02-28T05:39:05;102971.44;;;0.48;80.27
78845;BME280;68195;50.854;2.860;2023-02-28T05:41:38;102968.81;;;0.47;79.67
78845;BME280;68195;50.854;2.860;2023-02-28T05:44:09;102997.56;;;0.64;79.77
78845;BME280;68195;50.854;2.860;2023-02-28T05:46:34;102982.66;;;0.52;79.84
78845;BME280;68195;50.854;2.860;2023-02-28T05:49:03;103007.09;;;0.68;79.86
78845;BME280;68195;50.854;2.860;2023-02-28T05:51:31;103002.81;;;0.68;79.48
78845;BME280;68195;50.854;2.860;2023-02-28T05:54:01;103007.91;;;0.67;79.91
78845;BME280;68195;50.854;2.860;2023-02-28T05:56:29;103013.13;;;0.68;79.66
78845;BME280;68195;50.854;2.860;2023-02-28T05:58:55;102984.38;;;0.51;80.12
78845;BME280;68195;50.854;2.860;2023-02-28T06:03:59;102982.66;;;0.52;79.65
78845;BME280;68195;50.854;2.860;2023-02-28T06:06:25;103000.94;;;0.63;79.87
78845;BME280;68195;50.854;2.860;2023-02-28T06:08:50;102963.59;;;0.44;79.79
78845;BME280;68195;50.854;2.860;2023-02-28T06:11:15;102987.97;;;0.58;79.76
78845;BME280;68195;50.854;2.860;2023-02-28T06:13:45;102969.00;;;0.53;79.93
78845;BME280;68195;50.854;2.860;2023-02-28T06:16:12;103006.59;;;0.81;79.35
78845;BME280;68195;50.854;2.860;2023-02-28T06:18:38;102983.16;;;0.70;79.67
78845;BME280;68195;50.854;2.860;2023-02-28T06:21:04;102997.00;;;0.74;79.47
78845;BME280;68195;50.854;2.860;2023-02-28T06:23:29;102984.03;;;0.71;79.49
78845;BME280;68195;50.854;2.860;2023-02-28T06:25:57;102975.38;;;0.67;79.01
78845;BME280;68195;50.854;2.860;2023-02-28T06:28:27;102977.16;;;0.70;79.01
78845;BME280;68195;50.854;2.860;2023-02-28T06:30:55;103018.09;;;0.94;78.90
78845;BME280;68195;50.854;2.860;2023-02-28T06:33:21;102960.78;;;0.66;78.76
78845;BME280;68195;50.854;2.860;2023-02-28T06:35:54;102999.19;;;0.92;78.29
78845;BME280;68195;50.854;2.860;2023-02-28T06:38:20;102980.84;;;0.79;78.73
78845;BME280;68195;50.854;2.860;2023-02-28T06:40:53;103005.06;;;0.88;78.19
78845;BME280;68195;50.854;2.860;2023-02-28T06:43:18;102979.91;;;0.77;78.05
78845;BME280;68195;50.854;2.860;2023-02-28T06:45:44;102997.63;;;0.98;78.40
78845;BME280;68195;50.854;2.860;2023-02-28T06:48:11;102978.44;;;0.86;78.28
78845;BME280;68195;50.854;2.860;2023-02-28T06:50:40;102980.38;;;0.94;77.44
78845;BME280;68195;50.854;2.860;2023-02-28T06:53:05;102976.03;;;0.92;76.99
78845;BME280;68195;50.854;2.860;2023-02-28T06:55:31;103002.94;;;1.05;76.77
78845;BME280;68195;50.854;2.860;2023-02-28T06:58:01;103023.88;;;1.18;76.66
78845;BME280;68195;50.854;2.860;2023-02-28T07:00:27;102997.84;;;1.06;76.17
78845;BME280;68195;50.854;2.860;2023-02-28T07:02:52;102989.22;;;1.04;75.80
78845;BME280;68195;50.854;2.860;2023-02-28T07:05:20;103029.19;;;1.25;74.92
78845;BME280;68195;50.854;2.860;2023-02-28T07:07:47;103005.84;;;1.17;74.94
78845;BME280;68195;50.854;2.860;2023-02-28T07:10:13;102992.84;;;1.12;74.43
78845;BME280;68195;50.854;2.860;2023-02-28T07:12:46;103000.72;;;1.18;73.79
78845;BME280;68195;50.854;2.860;2023-02-28T07:15:12;103033.69;;;1.33;73.68
78845;BME280;68195;50.854;2.860;2023-02-28T07:17:37;103022.59;;;1.36;72.11
78845;BME280;68195;50.854;2.860;2023-02-28T07:20:05;103022.59;;;1.36;71.19
78845;BME280;68195;50.854;2.860;2023-02-28T07:22:31;103025.38;;;1.43;70.30
78845;BME280;68195;50.854;2.860;2023-02-28T07:24:59;102988.13;;;1.29;70.24
78845;BME280;68195;50.854;2.860;2023-02-28T07:27:24;103009.06;;;1.43;70.29
78845;BME280;68195;50.854;2.860;2023-02-28T07:29:53;103037.72;;;1.57;70.89
78845;BME280;68195;50.854;2.860;2023-02-28T07:32:19;102993.53;;;1.40;70.88
78845;BME280;68195;50.854;2.860;2023-02-28T07:34:45;102995.38;;;1.46;70.72
78845;BME280;68195;50.854;2.860;2023-02-28T07:37:11;103005.09;;;1.57;71.00
78845;BME280;68195;50.854;2.860;2023-02-28T07:39:39;103013.88;;;1.66;71.15
78845;BME280;68195;50.854;2.860;2023-02-28T07:42:09;103015.59;;;1.65;71.32
78845;BME280;68195;50.854;2.860;2023-02-28T07:44:39;103000.84;;;1.59;71.96
78845;BME280;68195;50.854;2.860;2023-02-28T07:47:09;102974.69;;;1.42;71.20
78845;BME280;68195;50.854;2.860;2023-02-28T07:49:37;103011.41;;;1.69;71.38
78845;BME280;68195;50.854;2.860;2023-02-28T07:52:04;103014.88;;;1.71;71.41
78845;BME280;68195;50.854;2.860;2023-02-28T07:54:30;102967.81;;;1.41;71.74
78845;BME280;68195;50.854;2.860;2023-02-28T07:56:56;102993.84;;;1.52;71.39
78845;BME280;68195;50.854;2.860;2023-02-28T07:59:27;103016.31;;;1.59;71.72
78845;BME280;68195;50.854;2.860;2023-02-28T08:01:52;103031.00;;;1.63;72.42
78845;BME280;68195;50.854;2.860;2023-02-28T08:04:18;103023.38;;;1.67;73.14
78845;BME280;68195;50.854;2.860;2023-02-28T08:06:44;103016.34;;;1.61;72.55
78845;BME280;68195;50.854;2.860;2023-02-28T08:09:11;103012.88;;;1.59;73.06
78845;BME280;68195;50.854;2.860;2023-02-28T08:11:39;103026.75;;;1.66;73.43
78845;BME280;68195;50.854;2.860;2023-02-28T08:14:05;103019.00;;;1.64;73.51
78845;BME280;68195;50.854;2.860;2023-02-28T08:16:31;103027.72;;;1.69;74.02
78845;BME280;68195;50.854;2.860;2023-02-28T08:18:58;103023.38;;;1.68;74.10
78845;BME280;68195;50.854;2.860;2023-02-28T08:21:24;103021.75;;;1.72;74.17
78845;BME280;68195;50.854;2.860;2023-02-28T08:23:50;103022.66;;;1.74;74.31
78845;BME280;68195;50.854;2.860;2023-02-28T08:26:16;103022.72;;;1.77;74.62
78845;BME280;68195;50.854;2.860;2023-02-28T08:28:42;102989.78;;;1.63;74.27
78845;BME280;68195;50.854;2.860;2023-02-28T08:31:12;103017.72;;;1.81;74.26
78845;BME280;68195;50.854;2.860;2023-02-28T08:33:38;102985.50;;;1.64;74.26
78845;BME280;68195;50.854;2.860;2023-02-28T08:36:07;103023.81;;;1.87;74.16
78845;BME280;68195;50.854;2.860;2023-02-28T08:38:36;103023.88;;;1.88;74.27
78845;BME280;68195;50.854;2.860;2023-02-28T08:41:07;103020.38;;;1.86;74.24
78845;BME280;68195;50.854;2.860;2023-02-28T08:43:36;103005.47;;;1.73;74.24
78845;BME280;68195;50.854;2.860;2023-02-28T08:46:02;103026.44;;;1.88;73.95
78845;BME280;68195;50.854;2.860;2023-02-28T08:48:29;103028.94;;;1.85;74.02
78845;BME280;68195;50.854;2.860;2023-02-28T08:51:08;103027.22;;;1.84;74.51
78845;BME280;68195;50.854;2.860;2023-02-28T08:53:38;103021.97;;;1.81;74.53
78845;BME280;68195;50.854;2.860;2023-02-28T08:56:06;103021.97;;;1.81;75.44
78845;BME280;68195;50.854;2.860;2023-02-28T08:58:34;103015.66;;;1.68;75.50
78845;BME280;68195;50.854;2.860;2023-02-28T09:01:06;103012.31;;;1.71;75.31
78845;BME280;68195;50.854;2.860;2023-02-28T09:03:34;103015.69;;;1.70;75.54
78845;BME280;68195;50.854;2.860;2023-02-28T09:06:00;103024.50;;;1.78;76.09
78845;BME280;68195;50.854;2.860;2023-02-28T09:08:27;103032.28;;;1.81;75.82
78845;BME280;68195;50.854;2.860;2023-02-28T09:10:53;103034.09;;;1.85;75.54
78845;BME280;68195;50.854;2.860;2023-02-28T09:13:21;103034.19;;;1.88;75.65
78845;BME280;68195;50.854;2.860;2023-02-28T09:15:52;102977.53;;;1.52;75.09
78845;BME280;68195;50.854;2.860;2023-02-28T09:18:18;103041.06;;;1.89;74.78
78845;BME280;68195;50.854;2.860;2023-02-28T09:20:44;103038.31;;;1.81;75.00
78845;BME280;68195;50.854;2.860;2023-02-28T09:23:10;103051.00;;;1.74;75.11
78845;BME280;68195;50.854;2.860;2023-02-28T09:25:48;103056.00;;;1.68;74.42
78845;BME280;68195;50.854;2.860;2023-02-28T09:28:15;103033.31;;;1.51;73.62
78845;BME280;68195;50.854;2.860;2023-02-28T09:30:45;103035.13;;;1.57;73.57
78845;BME280;68195;50.854;2.860;2023-02-28T09:33:13;103036.00;;;1.56;74.78
78845;BME280;68195;50.854;2.860;2023-02-28T09:35:44;103033.16;;;1.47;74.37
78845;BME280;68195;50.854;2.860;2023-02-28T09:38:12;103041.63;;;1.42;75.17
78845;BME280;68195;50.854;2.860;2023-02-28T09:40:53;103041.63;;;1.41;75.35
78845;BME280;68195;50.854;2.860;2023-02-28T09:43:23;103012.72;;;1.18;75.29
78845;BME280;68195;50.854;2.860;2023-02-28T09:46:05;103041.38;;;1.32;76.00
78845;BME280;68195;50.854;2.860;2023-02-28T09:48:38;103038.84;;;1.33;76.51
78845;BME280;68195;50.854;2.860;2023-02-28T09:51:26;103038.22;;;1.42;77.63
78845;BME280;68195;50.854;2.860;2023-02-28T09:53:55;103029.31;;;1.29;77.58
78845;BME280;68195;50.854;2.860;2023-02-28T09:56:36;103032.84;;;1.33;77.53
78845;BME280;68195;50.854;2.860;2023-02-28T09:59:25;103034.56;;;1.34;77.50
78845;BME280;68195;50.854;2.860;2023-02-28T10:02:34;103041.38;;;1.32;76.94
78845;BME280;68195;50.854;2.860;2023-02-28T10:08:15;103034.59;;;1.35;77.44
78845;BME280;68195;50.854;2.860;2023-02-28T10:10:49;103022.38;;;1.27;77.47
78845;BME280;68195;50.854;2.860;2023-02-28T10:16:08;103009.47;;;1.25;76.87
78845;BME280;68195;50.854;2.860;2023-02-28T10:18:46;103022.53;;;1.33;77.11
78845;BME280;68195;50.854;2.860;2023-02-28T10:21:20;103011.22;;;1.26;76.47
78845;BME280;68195;50.854;2.860;2023-02-28T10:23:53;103036.47;;;1.41;77.22
78845;BME280;68195;50.854;2.860;2023-02-28T10:26:28;103032.19;;;1.41;76.49
78845;BME280;68195;50.854;2.860;2023-02-28T10:28:55;103004.34;;;1.27;76.08
78845;BME280;68195;50.854;2.860;2023-02-28T10:31:21;103024.66;;;1.49;76.60
78845;BME280;68195;50.854;2.860;2023-02-28T10:33:48;103012.72;;;1.51;76.24
78845;BME280;68195;50.854;2.860;2023-02-28T10:36:16;102996.34;;;1.49;76.06
78845;BME280;68195;50.854;2.860;2023-02-28T10:38:47;102996.34;;;1.51;75.14
78845;BME280;68195;50.854;2.860;2023-02-28T10:41:26;103010.22;;;1.56;75.64
78845;BME280;68195;50.854;2.860;2023-02-28T10:43:52;102992.09;;;1.51;76.09
78845;BME280;68195;50.854;2.860;2023-02-28T10:48:57;102908.22;;;1.25;73.59
78845;BME280;68195;50.854;2.860;2023-02-28T10:51:35;102909.41;;;1.39;73.41
78845;BME280;68195;50.854;2.860;2023-02-28T10:54:03;102842.97;;;0.86;73.51
78845;BME280;68195;50.854;2.860;2023-02-28T10:56:31;102907.16;;;1.16;72.52
78845;BME280;68195;50.854;2.860;2023-02-28T11:06:43;102988.31;;;1.73;73.44
78845;BME280;68195;50.854;2.860;2023-02-28T11:09:27;102929.81;;;1.31;73.64
78845;BME280;68195;50.854;2.860;2023-02-28T11:11:57;102915.03;;;1.22;72.21
78845;BME280;68195;50.854;2.860;2023-02-28T11:14:32;102977.56;;;1.55;73.56
78845;BME280;68195;50.854;2.860;2023-02-28T11:17:13;102871.63;;;1.00;73.38
78845;BME280;68195;50.854;2.860;2023-02-28T11:19:46;102897.63;;;1.12;74.27
78845;BME280;68195;50.854;2.860;2023-02-28T11:22:19;102838.38;;;0.73;74.43
78845;BME280;68195;50.854;2.860;2023-02-28T11:24:50;102854.91;;;0.84;74.90
78845;BME280;68195;50.854;2.860;2023-02-28T11:27:48;102811.41;;;0.57;74.25
78845;BME280;68195;50.854;2.860;2023-02-28T11:32:54;102945.97;;;1.24;75.83
78845;BME280;68195;50.854;2.860;2023-02-28T11:37:48;102850.94;;;0.62;75.58
78845;BME280;68195;50.854;2.860;2023-02-28T11:40:22;102773.66;;;0.19;76.94
78845;BME280;68195;50.854;2.860;2023-02-28T11:43:01;102958.97;;;1.30;77.72
78845;BME280;68195;50.854;2.860;2023-02-28T11:45:55;102954.25;;;1.47;77.70
78845;BME280;68195;50.854;2.860;2023-02-28T11:48:36;102766.34;;;0.36;78.72
78845;BME280;68195;50.854;2.860;2023-02-28T11:51:18;102944.28;;;1.62;77.30
78845;BME280;68195;50.854;2.860;2023-02-28T11:56:39;102923.53;;;1.56;76.89
78845;BME280;68195;50.854;2.860;2023-02-28T11:59:27;102901.31;;;1.61;75.59
78845;BME280;68195;50.854;2.860;2023-02-28T12:20:45;102882.84;;;2.23;73.18
78845;BME280;68195;50.854;2.860;2023-02-28T12:28:34;102832.84;;;2.15;72.47
78845;BME280;68195;50.854;2.860;2023-02-28T12:31:09;102889.53;;;2.61;72.11
78845;BME280;68195;50.854;2.860;2023-02-28T12:33:51;102870.59;;;2.57;72.14
78845;BME280;68195;50.854;2.860;2023-02-28T12:36:19;102882.97;;;2.77;73.08
78845;BME280;68195;50.854;2.860;2023-02-28T12:38:56;102869.03;;;2.67;71.35
78845;BME280;68195;50.854;2.860;2023-02-28T12:42:03;102873.59;;;2.85;71.00
78845;BME280;68195;50.854;2.860;2023-02-28T12:47:03;102864.44;;;3.02;70.35
78845;BME280;68195;50.854;2.860;2023-02-28T12:49:55;102856.78;;;3.07;70.35
78845;BME280;68195;50.854;2.860;2023-02-28T12:52:46;102867.94;;;3.06;67.28
78845;BME280;68195;50.854;2.860;2023-02-28T12:55:52;102856.78;;;3.08;66.84
78845;BME280;68195;50.854;2.860;2023-02-28T12:58:42;102845.81;;;3.22;68.56
78845;BME280;68195;50.854;2.860;2023-02-28T13:01:29;102806.75;;;2.99;67.68
78845;BME280;68195;50.854;2.860;2023-02-28T13:09:38;102827.84;;;3.31;67.94
78845;BME280;68195;50.854;2.860;2023-02-28T13:12:13;102805.34;;;3.22;66.96
78845;BME280;68195;50.854;2.860;2023-02-28T13:14:39;102821.94;;;3.40;67.64
78845;BME280;68195;50.854;2.860;2023-02-28T13:27:49;102767.78;;;3.47;63.22
78845;BME280;68195;50.854;2.860;2023-02-28T13:30:59;102793.09;;;3.75;63.88
78845;BME280;68195;50.854;2.860;2023-02-28T13:33:33;102790.56;;;3.79;63.74
78845;BME280;68195;50.854;2.860;2023-02-28T13:38:43;102785.41;;;3.79;64.15
78845;BME280;68195;50.854;2.860;2023-02-28T13:51:51;102744.13;;;3.88;56.99
78845;BME280;68195;50.854;2.860;2023-02-28T13:57:51;102777.16;;;4.19;57.60
78845;BME280;68195;50.854;2.860;2023-02-28T14:06:08;102767.69;;;4.18;57.04
78845;BME280;68195;50.854;2.860;2023-02-28T14:08:34;102776.25;;;4.12;56.86
78845;BME280;68195;50.854;2.860;2023-02-28T14:11:15;102766.78;;;4.14;56.69
78845;BME280;68195;50.854;2.860;2023-02-28T14:13:48;102755.59;;;4.14;57.15
78845;BME280;68195;50.854;2.860;2023-02-28T14:16:22;102728.78;;;4.02;55.22
78845;BME280;68195;50.854;2.860;2023-02-28T14:19:09;102707.13;;;3.91;53.59
78845;BME280;68195;50.854;2.860;2023-02-28T14:21:42;102774.69;;;4.29;52.77
78845;BME280;68195;50.854;2.860;2023-02-28T14:24:40;102762.66;;;4.30;53.10
78845;BME280;68195;50.854;2.860;2023-02-28T14:38:05;102748.97;;;4.46;51.79
78845;BME280;68195;50.854;2.860;2023-02-28T14:40:33;102751.63;;;4.57;51.07
78845;BME280;68195;50.854;2.860;2023-02-28T14:43:04;102764.63;;;4.65;51.54
78845;BME280;68195;50.854;2.860;2023-02-28T14:45:37;102759.38;;;4.56;51.14
78845;BME280;68195;50.854;2.860;2023-02-28T14:48:04;102706.63;;;4.38;50.08
78845;BME280;68195;50.854;2.860;2023-02-28T14:50:35;102761.16;;;4.64;48.92
78845;BME280;68195;50.854;2.860;2023-02-28T14:53:06;102748.09;;;4.46;48.44
78845;BME280;68195;50.854;2.860;2023-02-28T14:55:44;102714.34;;;4.29;48.94
78845;BME280;68195;50.854;2.860;2023-02-28T14:58:25;102764.53;;;4.56;49.36
78845;BME280;68195;50.854;2.860;2023-02-28T15:00:53;102732.53;;;4.41;48.64
78845;BME280;68195;50.854;2.860;2023-02-28T15:06:00;102751.69;;;4.66;46.48
78845;BME280;68195;50.854;2.860;2023-02-28T15:08:26;102749.13;;;4.65;47.16
78845;BME280;68195;50.854;2.860;2023-02-28T15:11:16;102754.34;;;4.71;45.71
78845;BME280;68195;50.854;2.860;2023-02-28T15:13:49;102741.31;;;4.62;45.69
78845;BME280;68195;50.854;2.860;2023-02-28T15:16:20;102757.75;;;4.70;45.81
78845;BME280;68195;50.854;2.860;2023-02-28T15:21:26;102740.44;;;4.60;43.59
78845;BME280;68195;50.854;2.860;2023-02-28T15:26:27;102734.41;;;4.59;42.37
78845;BME280;68195;50.854;2.860;2023-02-28T15:29:01;102730.84;;;4.43;42.61
78845;BME280;68195;50.854;2.860;2023-02-28T15:31:34;102753.41;;;4.66;42.54
78845;BME280;68195;50.854;2.860;2023-02-28T15:34:04;102697.00;;;4.19;43.17
78845;BME280;68195;50.854;2.860;2023-02-28T15:36:33;102769.88;;;4.71;42.85
78845;BME280;68195;50.854;2.860;2023-02-28T15:39:03;102768.13;;;4.70;41.65
78845;BME280;68195;50.854;2.860;2023-02-28T15:41:42;102752.44;;;4.48;41.50
78845;BME280;68195;50.854;2.860;2023-02-28T15:44:37;102770.56;;;4.50;43.36
78845;BME280;68195;50.854;2.860;2023-02-28T15:47:17;102748.91;;;4.37;41.69
78845;BME280;68195;50.854;2.860;2023-02-28T15:52:18;102702.97;;;4.10;42.43